sensor_id;sensor_type;location;lat;lon;timestamp;pressure;altitude;pressure_sealevel;temperature;humidity
50977;BME280;36992;48.200;12.418;2023-01-26T00:00:44;97136.53;;;3.87;55.89
50977;BME280;36992;48.200;12.418;2023-01-26T00:03:10;97126.59;;;3.83;56.01
50977;BME280;36992;48.200;12.418;2023-01-26T00:05:37;97132.16;;;3.81;55.88
50977;BME280;36992;48.200;12.418;2023-01-26T00:08:06;97124.16;;;3.81;55.98
50977;BME280;36992;48.200;12.418;2023-01-26T00:10:34;97127.06;;;3.80;56.25
50977;BME280;36992;48.200;12.418;2023-01-26T00:13:01;97125.47;;;3.78;56.44
50977;BME280;36992;48.200;12.418;2023-01-26T00:15:27;97120.91;;;3.79;56.11
50977;BME280;36992;48.200;12.418;2023-01-26T00:17:54;97118.81;;;3.81;56.21
50977;BME280;36992;48.200;12.418;2023-01-26T00:20:20;97110.59;;;3.83;56.47
50977;BME280;36992;48.200;12.418;2023-01-26T00:22:47;97113.03;;;3.84;56.42
50977;BME280;36992;48.200;12.418;2023-01-26T00:25:15;97108.25;;;3.86;55.91
50977;BME280;36992;48.200;12.418;2023-01-26T00:27:41;97105.34;;;3.88;55.97
50977;BME280;36992;48.200;12.418;2023-01-26T00:30:08;97108.84;;;3.88;55.49
50977;BME280;36992;48.200;12.418;2023-01-26T00:32:35;97108.53;;;3.85;55.60
50977;BME280;36992;48.200;12.418;2023-01-26T00:35:02;97103.41;;;3.83;55.46
50977;BME280;36992;48.200;12.418;2023-01-26T00:37:29;97106.53;;;3.80;55.65
50977;BME280;36992;48.200;12.418;2023-01-26T00:39:55;97108.66;;;3.78;55.61
50977;BME280;36992;48.200;12.418;2023-01-26T00:42:23;97096.38;;;3.77;55.83
50977;BME280;36992;48.200;12.418;2023-01-26T00:44:50;97102.44;;;3.72;55.91
50977;BME280;36992;48.200;12.418;2023-01-26T00:47:17;97103.44;;;3.71;55.71
50977;BME280;36992;48.200;12.418;2023-01-26T00:49:44;97103.72;;;3.70;56.10
50977;BME280;36992;48.200;12.418;2023-01-26T00:52:11;97100.00;;;3.71;56.10
50977;BME280;36992;48.200;12.418;2023-01-26T00:54:38;97104.28;;;3.72;56.14
50977;BME280;36992;48.200;12.418;2023-01-26T00:57:05;97097.88;;;3.73;55.81
50977;BME280;36992;48.200;12.418;2023-01-26T00:59:33;97103.56;;;3.76;55.73
50977;BME280;36992;48.200;12.418;2023-01-26T01:02:00;97102.16;;;3.74;55.55
50977;BME280;36992;48.200;12.418;2023-01-26T01:04:27;97102.66;;;3.71;55.47
50977;BME280;36992;48.200;12.418;2023-01-26T01:06:54;97100.44;;;3.68;55.62
50977;BME280;36992;48.200;12.418;2023-01-26T01:09:21;97103.38;;;3.66;55.64
50977;BME280;36992;48.200;12.418;2023-01-26T01:11:47;97098.28;;;3.64;55.66
50977;BME280;36992;48.200;12.418;2023-01-26T01:14:14;97098.50;;;3.63;55.98
50977;BME280;36992;48.200;12.418;2023-01-26T01:16:42;97098.28;;;3.64;55.75
50977;BME280;36992;48.200;12.418;2023-01-26T01:19:13;97095.84;;;3.63;55.93
50977;BME280;36992;48.200;12.418;2023-01-26T01:21:39;97095.03;;;3.62;55.82
50977;BME280;36992;48.200;12.418;2023-01-26T01:24:06;97097.69;;;3.62;55.97
50977;BME280;36992;48.200;12.418;2023-01-26T01:26:33;97100.34;;;3.62;55.87
50977;BME280;36992;48.200;12.418;2023-01-26T01:29:00;97099.34;;;3.63;56.02
50977;BME280;36992;48.200;12.418;2023-01-26T01:31:26;97095.84;;;3.63;56.10
50977;BME280;36992;48.200;12.418;2023-01-26T01:33:55;97095.63;;;3.64;56.42
50977;BME280;36992;48.200;12.418;2023-01-26T01:36:22;97104.41;;;3.65;56.17
50977;BME280;36992;48.200;12.418;2023-01-26T01:38:48;97093.75;;;3.65;56.20
50977;BME280;36992;48.200;12.418;2023-01-26T01:41:17;97094.91;;;3.69;56.55
50977;BME280;36992;48.200;12.418;2023-01-26T01:43:44;97090.38;;;3.70;56.39
50977;BME280;36992;48.200;12.418;2023-01-26T01:46:14;97087.00;;;3.74;56.38
50977;BME280;36992;48.200;12.418;2023-01-26T01:48:48;97086.50;;;3.77;55.89
50977;BME280;36992;48.200;12.418;2023-01-26T01:51:20;97085.22;;;3.80;56.10
50977;BME280;36992;48.200;12.418;2023-01-26T01:53:53;97085.22;;;3.80;56.36
50977;BME280;36992;48.200;12.418;2023-01-26T01:56:24;97081.50;;;3.81;55.76
50977;BME280;36992;48.200;12.418;2023-01-26T01:58:56;97079.66;;;3.82;55.91
50977;BME280;36992;48.200;12.418;2023-01-26T02:01:23;97080.16;;;3.78;55.50
50977;BME280;36992;48.200;12.418;2023-01-26T02:03:54;97079.91;;;3.80;55.44
50977;BME280;36992;48.200;12.418;2023-01-26T02:06:27;97069.72;;;3.77;55.55
50977;BME280;36992;48.200;12.418;2023-01-26T02:08:56;97066.72;;;3.73;55.57
50977;BME280;36992;48.200;12.418;2023-01-26T02:11:24;97069.41;;;3.73;55.61
50977;BME280;36992;48.200;12.418;2023-01-26T02:13:53;97064.31;;;3.72;55.75
50977;BME280;36992;48.200;12.418;2023-01-26T02:16:20;97058.97;;;3.72;55.58
50977;BME280;36992;48.200;12.418;2023-01-26T02:18:46;97056.88;;;3.74;55.85
50977;BME280;36992;48.200;12.418;2023-01-26T02:21:16;97058.00;;;3.78;55.92
50977;BME280;36992;48.200;12.418;2023-01-26T02:23:52;97058.56;;;3.80;56.00
50977;BME280;36992;48.200;12.418;2023-01-26T02:26:23;97053.00;;;3.82;55.84
50977;BME280;36992;48.200;12.418;2023-01-26T02:28:52;97058.09;;;3.83;55.53
50977;BME280;36992;48.200;12.418;2023-01-26T02:31:19;97052.78;;;3.83;55.67
50977;BME280;36992;48.200;12.418;2023-01-26T02:33:47;97049.88;;;3.85;55.27
50977;BME280;36992;48.200;12.418;2023-01-26T02:36:18;97044.06;;;3.88;55.76
50977;BME280;36992;48.200;12.418;2023-01-26T02:38:58;97044.63;;;3.90;55.22
50977;BME280;36992;48.200;12.418;2023-01-26T02:41:27;97043.81;;;3.89;55.11
50977;BME280;36992;48.200;12.418;2023-01-26T02:44:12;97037.91;;;3.87;55.31
50977;BME280;36992;48.200;12.418;2023-01-26T02:46:40;97029.59;;;3.84;55.33
50977;BME280;36992;48.200;12.418;2023-01-26T02:49:06;97033.06;;;3.84;55.56
50977;BME280;36992;48.200;12.418;2023-01-26T02:51:51;97032.50;;;3.82;55.41
50977;BME280;36992;48.200;12.418;2023-01-26T02:54:17;97031.47;;;3.83;55.60
50977;BME280;36992;48.200;12.418;2023-01-26T02:57:03;97035.50;;;3.86;55.60
50977;BME280;36992;48.200;12.418;2023-01-26T02:59:29;97025.91;;;3.85;55.66
50977;BME280;36992;48.200;12.418;2023-01-26T03:01:56;97019.50;;;3.86;55.58
50977;BME280;36992;48.200;12.418;2023-01-26T03:04:23;97016.59;;;3.87;55.50
50977;BME280;36992;48.200;12.418;2023-01-26T03:06:49;97018.22;;;3.88;55.43
50977;BME280;36992;48.200;12.418;2023-01-26T03:09:16;97011.84;;;3.89;55.45
50977;BME280;36992;48.200;12.418;2023-01-26T03:11:43;97011.59;;;3.91;55.27
50977;BME280;36992;48.200;12.418;2023-01-26T03:14:12;97004.97;;;3.94;55.38
50977;BME280;36992;48.200;12.418;2023-01-26T03:16:39;97009.50;;;3.93;55.27
50977;BME280;36992;48.200;12.418;2023-01-26T03:19:08;97010.28;;;3.94;55.26
50977;BME280;36992;48.200;12.418;2023-01-26T03:21:52;97011.09;;;3.94;55.34
50977;BME280;36992;48.200;12.418;2023-01-26T03:24:36;97008.69;;;3.92;55.13
50977;BME280;36992;48.200;12.418;2023-01-26T03:27:20;97000.69;;;3.92;55.27
50977;BME280;36992;48.200;12.418;2023-01-26T03:29:55;97011.94;;;3.95;55.36
50977;BME280;36992;48.200;12.418;2023-01-26T03:32:23;97007.63;;;3.94;55.56
50977;BME280;36992;48.200;12.418;2023-01-26T03:34:50;97010.28;;;3.94;55.49
50977;BME280;36992;48.200;12.418;2023-01-26T03:37:16;97004.97;;;3.94;55.48
50977;BME280;36992;48.200;12.418;2023-01-26T03:39:46;96999.63;;;3.94;55.26
50977;BME280;36992;48.200;12.418;2023-01-26T03:42:30;97004.16;;;3.93;55.02
50977;BME280;36992;48.200;12.418;2023-01-26T03:45:16;97002.28;;;3.94;55.23
50977;BME280;36992;48.200;12.418;2023-01-26T03:48:04;97004.97;;;3.94;55.49
50977;BME280;36992;48.200;12.418;2023-01-26T03:50:48;97012.41;;;3.91;55.50
50977;BME280;36992;48.200;12.418;2023-01-26T03:53:32;97004.41;;;3.91;55.33
50977;BME280;36992;48.200;12.418;2023-01-26T03:56:16;97003.59;;;3.91;55.11
50977;BME280;36992;48.200;12.418;2023-01-26T03:58:49;96993.50;;;3.93;55.57
50977;BME280;36992;48.200;12.418;2023-01-26T04:01:17;96994.28;;;3.94;55.46
50977;BME280;36992;48.200;12.418;2023-01-26T04:03:46;96999.63;;;3.94;55.35
50977;BME280;36992;48.200;12.418;2023-01-26T04:06:30;96997.78;;;3.94;55.21
50977;BME280;36992;48.200;12.418;2023-01-26T04:09:14;96989.78;;;3.94;55.23
50977;BME280;36992;48.200;12.418;2023-01-26T04:11:41;96991.41;;;3.95;55.39
50977;BME280;36992;48.200;12.418;2023-01-26T04:14:10;96996.25;;;3.98;55.41
50977;BME280;36992;48.200;12.418;2023-01-26T04:16:56;96992.78;;;3.98;55.13
50977;BME280;36992;48.200;12.418;2023-01-26T04:19:39;96993.00;;;3.96;55.27
50977;BME280;36992;48.200;12.418;2023-01-26T04:22:24;96990.59;;;3.95;55.41
50977;BME280;36992;48.200;12.418;2023-01-26T04:24:51;96990.59;;;3.95;55.41
50977;BME280;36992;48.200;12.418;2023-01-26T04:27:17;96991.63;;;3.94;55.18
50977;BME280;36992;48.200;12.418;2023-01-26T04:29:44;96982.84;;;3.93;54.81
50977;BME280;36992;48.200;12.418;2023-01-26T04:32:12;96985.28;;;3.95;54.94
50977;BME280;36992;48.200;12.418;2023-01-26T04:34:38;96990.28;;;3.91;55.16
50977;BME280;36992;48.200;12.418;2023-01-26T04:37:05;96988.63;;;3.90;55.20
50977;BME280;36992;48.200;12.418;2023-01-26T04:39:31;96982.75;;;3.88;54.82
50977;BME280;36992;48.200;12.418;2023-01-26T04:41:58;96976.03;;;3.85;54.95
50977;BME280;36992;48.200;12.418;2023-01-26T04:44:24;96974.44;;;3.84;54.76
50977;BME280;36992;48.200;12.418;2023-01-26T04:46:51;96973.06;;;3.82;54.81
50977;BME280;36992;48.200;12.418;2023-01-26T04:49:19;96970.63;;;3.80;54.92
50977;BME280;36992;48.200;12.418;2023-01-26T04:51:45;96975.41;;;3.78;54.99
50977;BME280;36992;48.200;12.418;2023-01-26T04:54:12;96973.78;;;3.77;55.34
50977;BME280;36992;48.200;12.418;2023-01-26T04:56:38;96980.72;;;3.78;55.23
50977;BME280;36992;48.200;12.418;2023-01-26T04:59:06;96969.56;;;3.81;55.29
50977;BME280;36992;48.200;12.418;2023-01-26T05:01:33;96973.28;;;3.80;54.99
50977;BME280;36992;48.200;12.418;2023-01-26T05:04:00;96965.28;;;3.80;55.12
50977;BME280;36992;48.200;12.418;2023-01-26T05:06:28;96968.28;;;3.84;55.40
50977;BME280;36992;48.200;12.418;2023-01-26T05:08:55;96967.50;;;3.83;55.22
50977;BME280;36992;48.200;12.418;2023-01-26T05:11:21;96965.63;;;3.84;54.98
50977;BME280;36992;48.200;12.418;2023-01-26T05:13:48;96956.59;;;3.85;55.25
50977;BME280;36992;48.200;12.418;2023-01-26T05:16:15;96960.06;;;3.85;55.00
50977;BME280;36992;48.200;12.418;2023-01-26T05:18:42;96963.53;;;3.86;55.19
50977;BME280;36992;48.200;12.418;2023-01-26T05:21:09;96960.88;;;3.86;55.04
50977;BME280;36992;48.200;12.418;2023-01-26T05:23:37;96957.94;;;3.87;55.19
50977;BME280;36992;48.200;12.418;2023-01-26T05:26:05;96963.28;;;3.87;55.20
50977;BME280;36992;48.200;12.418;2023-01-26T05:28:33;96961.19;;;3.89;55.16
50977;BME280;36992;48.200;12.418;2023-01-26T05:30:59;96959.31;;;3.90;55.07
50977;BME280;36992;48.200;12.418;2023-01-26T05:33:26;96967.31;;;3.90;55.05
50977;BME280;36992;48.200;12.418;2023-01-26T05:35:52;96965.22;;;3.92;55.20
50977;BME280;36992;48.200;12.418;2023-01-26T05:38:20;96971.34;;;3.92;55.19
50977;BME280;36992;48.200;12.418;2023-01-26T05:40:48;96964.72;;;3.95;55.11
50977;BME280;36992;48.200;12.418;2023-01-26T05:43:14;96969.28;;;3.95;54.72
50977;BME280;36992;48.200;12.418;2023-01-26T05:45:41;96971.13;;;3.94;54.70
50977;BME280;36992;48.200;12.418;2023-01-26T05:48:07;96971.94;;;3.95;54.98
50977;BME280;36992;48.200;12.418;2023-01-26T05:50:34;96980.50;;;3.97;54.83
50977;BME280;36992;48.200;12.418;2023-01-26T05:53:00;96971.69;;;3.96;54.63
50977;BME280;36992;48.200;12.418;2023-01-26T05:55:27;96969.84;;;3.97;54.34
50977;BME280;36992;48.200;12.418;2023-01-26T05:57:55;96975.72;;;3.99;54.40
50977;BME280;36992;48.200;12.418;2023-01-26T06:00:22;96975.16;;;3.97;53.93
50977;BME280;36992;48.200;12.418;2023-01-26T06:02:48;96974.34;;;3.96;54.40
50977;BME280;36992;48.200;12.418;2023-01-26T06:05:15;96969.28;;;3.95;53.98
50977;BME280;36992;48.200;12.418;2023-01-26T06:07:42;96971.94;;;3.95;54.38
50977;BME280;36992;48.200;12.418;2023-01-26T06:10:09;96979.94;;;3.95;53.99
50977;BME280;36992;48.200;12.418;2023-01-26T06:12:36;96989.53;;;3.96;54.26
50977;BME280;36992;48.200;12.418;2023-01-26T06:15:06;96984.78;;;3.98;54.20
50977;BME280;36992;48.200;12.418;2023-01-26T06:17:32;96985.28;;;3.95;54.25
50977;BME280;36992;48.200;12.418;2023-01-26T06:19:59;96983.41;;;3.95;54.41
50977;BME280;36992;48.200;12.418;2023-01-26T06:22:25;96981.56;;;3.96;54.01
50977;BME280;36992;48.200;12.418;2023-01-26T06:24:52;96982.34;;;3.96;54.28
50977;BME280;36992;48.200;12.418;2023-01-26T06:27:18;96982.09;;;3.98;53.98
50977;BME280;36992;48.200;12.418;2023-01-26T06:29:45;96982.34;;;3.96;53.85
50977;BME280;36992;48.200;12.418;2023-01-26T06:32:13;96979.44;;;3.98;54.32
50977;BME280;36992;48.200;12.418;2023-01-26T06:34:40;96975.16;;;3.97;53.78
50977;BME280;36992;48.200;12.418;2023-01-26T06:37:07;96973.31;;;3.97;54.23
50977;BME280;36992;48.200;12.418;2023-01-26T06:39:34;96974.09;;;3.98;54.07
50977;BME280;36992;48.200;12.418;2023-01-26T06:42:00;96971.44;;;3.98;53.88
50977;BME280;36992;48.200;12.418;2023-01-26T06:44:27;96975.72;;;3.99;54.19
50977;BME280;36992;48.200;12.418;2023-01-26T06:46:54;96970.38;;;3.99;54.06
50977;BME280;36992;48.200;12.418;2023-01-26T06:49:22;96966.44;;;4.01;54.58
50977;BME280;36992;48.200;12.418;2023-01-26T06:51:54;96963.28;;;4.04;54.29
50977;BME280;36992;48.200;12.418;2023-01-26T06:54:22;96964.59;;;4.02;54.10
50977;BME280;36992;48.200;12.418;2023-01-26T06:56:48;96966.19;;;4.03;53.95
50977;BME280;36992;48.200;12.418;2023-01-26T06:59:15;96961.66;;;4.03;54.26
50977;BME280;36992;48.200;12.418;2023-01-26T07:01:44;96964.91;;;4.05;53.97
50977;BME280;36992;48.200;12.418;2023-01-26T07:04:13;96966.97;;;4.03;53.08
50977;BME280;36992;48.200;12.418;2023-01-26T07:06:41;96966.19;;;4.03;53.00
50977;BME280;36992;48.200;12.418;2023-01-26T07:09:08;96963.44;;;3.98;53.37
50977;BME280;36992;48.200;12.418;2023-01-26T07:11:35;96971.69;;;3.96;53.71
50977;BME280;36992;48.200;12.418;2023-01-26T07:14:01;96971.94;;;3.95;53.80
50977;BME280;36992;48.200;12.418;2023-01-26T07:16:28;96971.34;;;3.92;53.19
50977;BME280;36992;48.200;12.418;2023-01-26T07:18:55;96969.75;;;3.91;53.16
50977;BME280;36992;48.200;12.418;2023-01-26T07:21:22;96966.53;;;3.89;53.50
50977;BME280;36992;48.200;12.418;2023-01-26T07:23:50;96972.09;;;3.88;53.55
50977;BME280;36992;48.200;12.418;2023-01-26T07:26:17;96974.44;;;3.84;53.28
50977;BME280;36992;48.200;12.418;2023-01-26T07:28:44;96966.13;;;3.81;53.76
50977;BME280;36992;48.200;12.418;2023-01-26T07:31:11;96969.00;;;3.79;53.11
50977;BME280;36992;48.200;12.418;2023-01-26T07:33:38;96972.97;;;3.76;53.44
50977;BME280;36992;48.200;12.418;2023-01-26T07:36:05;96965.22;;;3.75;53.47
50977;BME280;36992;48.200;12.418;2023-01-26T07:38:32;96967.31;;;3.73;54.09
50977;BME280;36992;48.200;12.418;2023-01-26T07:41:06;96956.19;;;3.76;54.37
50977;BME280;36992;48.200;12.418;2023-01-26T07:43:33;96961.19;;;3.72;54.12
50977;BME280;36992;48.200;12.418;2023-01-26T07:46:00;96964.41;;;3.74;53.78
50977;BME280;36992;48.200;12.418;2023-01-26T07:48:27;96960.94;;;3.74;53.76
50977;BME280;36992;48.200;12.418;2023-01-26T07:50:57;96960.69;;;3.75;53.74
50977;BME280;36992;48.200;12.418;2023-01-26T07:53:24;96952.38;;;3.72;53.94
50977;BME280;36992;48.200;12.418;2023-01-26T07:55:53;96960.38;;;3.72;54.23
50977;BME280;36992;48.200;12.418;2023-01-26T07:58:21;96961.75;;;3.74;54.35
50977;BME280;36992;48.200;12.418;2023-01-26T08:00:48;96955.88;;;3.72;54.19
50977;BME280;36992;48.200;12.418;2023-01-26T08:03:14;96960.94;;;3.74;53.92
50977;BME280;36992;48.200;12.418;2023-01-26T08:05:41;96952.94;;;3.74;54.08
50977;BME280;36992;48.200;12.418;2023-01-26T08:08:08;96949.81;;;3.77;54.01
50977;BME280;36992;48.200;12.418;2023-01-26T08:10:35;96956.19;;;3.76;53.99
50977;BME280;36992;48.200;12.418;2023-01-26T08:13:01;96956.75;;;3.78;54.14
50977;BME280;36992;48.200;12.418;2023-01-26T08:15:29;96951.19;;;3.80;54.08
50977;BME280;36992;48.200;12.418;2023-01-26T08:17:56;96943.41;;;3.78;53.40
50977;BME280;36992;48.200;12.418;2023-01-26T08:20:22;96951.97;;;3.80;53.71
50977;BME280;36992;48.200;12.418;2023-01-26T08:22:49;96951.97;;;3.80;53.00
50977;BME280;36992;48.200;12.418;2023-01-26T08:25:15;96942.38;;;3.79;53.18
50977;BME280;36992;48.200;12.418;2023-01-26T08:27:42;96948.75;;;3.78;53.29
50977;BME280;36992;48.200;12.418;2023-01-26T08:30:10;96947.13;;;3.77;53.60
50977;BME280;36992;48.200;12.418;2023-01-26T08:32:38;96938.91;;;3.78;53.79
50977;BME280;36992;48.200;12.418;2023-01-26T08:35:05;96941.00;;;3.76;53.81
50977;BME280;36992;48.200;12.418;2023-01-26T08:37:32;96945.53;;;3.76;53.74
50977;BME280;36992;48.200;12.418;2023-01-26T08:39:59;96950.59;;;3.77;53.58
50977;BME280;36992;48.200;12.418;2023-01-26T08:42:25;96950.59;;;3.77;53.42
50977;BME280;36992;48.200;12.418;2023-01-26T08:44:52;96948.75;;;3.78;53.46
50977;BME280;36992;48.200;12.418;2023-01-26T08:47:18;96954.09;;;3.78;53.68
50977;BME280;36992;48.200;12.418;2023-01-26T08:49:46;96953.59;;;3.81;53.60
50977;BME280;36992;48.200;12.418;2023-01-26T08:52:13;96950.38;;;3.79;52.65
50977;BME280;36992;48.200;12.418;2023-01-26T08:54:39;96951.41;;;3.78;53.31
50977;BME280;36992;48.200;12.418;2023-01-26T08:57:06;96947.94;;;3.77;53.47
50977;BME280;36992;48.200;12.418;2023-01-26T08:59:32;96943.41;;;3.78;53.55
50977;BME280;36992;48.200;12.418;2023-01-26T09:01:59;96944.25;;;3.78;53.51
50977;BME280;36992;48.200;12.418;2023-01-26T09:04:25;96938.09;;;3.78;53.67
50977;BME280;36992;48.200;12.418;2023-01-26T09:06:53;96939.69;;;3.79;53.39
50977;BME280;36992;48.200;12.418;2023-01-26T09:09:20;96932.75;;;3.78;53.30
50977;BME280;36992;48.200;12.418;2023-01-26T09:11:47;96938.91;;;3.78;53.63
50977;BME280;36992;48.200;12.418;2023-01-26T09:14:14;96939.69;;;3.79;53.06
50977;BME280;36992;48.200;12.418;2023-01-26T09:16:41;96935.97;;;3.80;53.52
50977;BME280;36992;48.200;12.418;2023-01-26T09:19:07;96945.59;;;3.81;53.60
50977;BME280;36992;48.200;12.418;2023-01-26T09:21:34;96946.63;;;3.80;53.20
50977;BME280;36992;48.200;12.418;2023-01-26T09:24:02;96954.16;;;3.83;53.59
50977;BME280;36992;48.200;12.418;2023-01-26T09:26:29;96949.91;;;3.82;53.28
50977;BME280;36992;48.200;12.418;2023-01-26T09:28:56;96944.56;;;3.82;53.19
50977;BME280;36992;48.200;12.418;2023-01-26T09:31:23;96953.13;;;3.84;53.17
50977;BME280;36992;48.200;12.418;2023-01-26T09:33:49;96957.38;;;3.85;52.88
50977;BME280;36992;48.200;12.418;2023-01-26T09:36:16;96954.72;;;3.85;52.90
50977;BME280;36992;48.200;12.418;2023-01-26T09:38:43;96953.94;;;3.85;52.79
50977;BME280;36992;48.200;12.418;2023-01-26T09:41:31;96957.94;;;3.87;53.03
50977;BME280;36992;48.200;12.418;2023-01-26T09:44:03;96951.00;;;3.86;53.09
50977;BME280;36992;48.200;12.418;2023-01-26T09:46:41;96952.63;;;3.87;53.47
50977;BME280;36992;48.200;12.418;2023-01-26T09:49:12;96950.78;;;3.88;53.36
50977;BME280;36992;48.200;12.418;2023-01-26T09:51:44;96954.25;;;3.88;53.24
50977;BME280;36992;48.200;12.418;2023-01-26T09:54:24;96951.31;;;3.90;53.30
50977;BME280;36992;48.200;12.418;2023-01-26T09:56:54;96950.53;;;3.89;53.30
50977;BME280;36992;48.200;12.418;2023-01-26T09:59:30;96943.09;;;3.91;53.72
50977;BME280;36992;48.200;12.418;2023-01-26T10:02:01;96945.75;;;3.91;53.50
50977;BME280;36992;48.200;12.418;2023-01-26T10:04:33;96938.81;;;3.90;53.60
50977;BME280;36992;48.200;12.418;2023-01-26T10:07:03;96929.75;;;3.91;53.18
50977;BME280;36992;48.200;12.418;2023-01-26T10:09:34;96925.00;;;3.94;53.56
50977;BME280;36992;48.200;12.418;2023-01-26T10:12:06;96927.41;;;3.95;53.40
50977;BME280;36992;48.200;12.418;2023-01-26T10:14:36;96925.81;;;3.94;53.35
50977;BME280;36992;48.200;12.418;2023-01-26T10:17:06;96927.66;;;3.94;53.29
50977;BME280;36992;48.200;12.418;2023-01-26T10:19:41;96919.66;;;3.94;52.94
50977;BME280;36992;48.200;12.418;2023-01-26T10:22:14;96915.16;;;3.94;52.98
50977;BME280;36992;48.200;12.418;2023-01-26T10:24:43;96911.09;;;3.91;53.08
50977;BME280;36992;48.200;12.418;2023-01-26T10:27:13;96911.34;;;3.90;52.94
50977;BME280;36992;48.200;12.418;2023-01-26T10:29:40;96913.69;;;3.86;52.44
50977;BME280;36992;48.200;12.418;2023-01-26T10:32:11;96907.81;;;3.84;52.54
50977;BME280;36992;48.200;12.418;2023-01-26T10:34:40;96913.06;;;3.79;53.09
50977;BME280;36992;48.200;12.418;2023-01-26T10:37:18;96907.25;;;3.82;53.27
50977;BME280;36992;48.200;12.418;2023-01-26T10:39:59;96904.59;;;3.82;53.51
50977;BME280;36992;48.200;12.418;2023-01-26T10:42:29;96910.38;;;3.79;52.64
50977;BME280;36992;48.200;12.418;2023-01-26T10:44:58;96908.47;;;3.74;52.75
50977;BME280;36992;48.200;12.418;2023-01-26T10:47:27;96903.38;;;3.73;53.25
50977;BME280;36992;48.200;12.418;2023-01-26T10:50:12;96907.63;;;3.74;53.46
50977;BME280;36992;48.200;12.418;2023-01-26T10:52:56;96904.41;;;3.72;53.62
50977;BME280;36992;48.200;12.418;2023-01-26T10:55:23;96908.59;;;3.68;53.22
50977;BME280;36992;48.200;12.418;2023-01-26T10:57:51;96905.94;;;3.68;53.31
50977;BME280;36992;48.200;12.418;2023-01-26T11:00:22;96892.63;;;3.68;53.13
50977;BME280;36992;48.200;12.418;2023-01-26T11:02:52;96896.34;;;3.67;53.05
50977;BME280;36992;48.200;12.418;2023-01-26T11:05:20;96891.25;;;3.65;53.00
50977;BME280;36992;48.200;12.418;2023-01-26T11:07:48;96900.53;;;3.62;53.33
50977;BME280;36992;48.200;12.418;2023-01-26T11:10:19;96894.66;;;3.60;52.81
50977;BME280;36992;48.200;12.418;2023-01-26T11:12:46;96904.16;;;3.56;53.56
50977;BME280;36992;48.200;12.418;2023-01-26T11:15:19;96898.38;;;3.59;53.65
50977;BME280;36992;48.200;12.418;2023-01-26T11:17:50;96903.69;;;3.59;53.55
50977;BME280;36992;48.200;12.418;2023-01-26T11:20:45;96901.34;;;3.63;53.62
50977;BME280;36992;48.200;12.418;2023-01-26T11:23:20;96894.66;;;3.60;53.33
50977;BME280;36992;48.200;12.418;2023-01-26T11:26:07;96888.25;;;3.61;53.29
50977;BME280;36992;48.200;12.418;2023-01-26T11:28:48;96895.47;;;3.61;53.65
50977;BME280;36992;48.200;12.418;2023-01-26T11:31:48;96887.22;;;3.62;53.66
50977;BME280;36992;48.200;12.418;2023-01-26T11:34:29;96885.59;;;3.61;53.39
50977;BME280;36992;48.200;12.418;2023-01-26T11:37:25;96879.47;;;3.61;53.52
50977;BME280;36992;48.200;12.418;2023-01-26T11:40:06;96877.88;;;3.60;53.17
50977;BME280;36992;48.200;12.418;2023-01-26T11:42:47;96878.66;;;3.60;53.41
50977;BME280;36992;48.200;12.418;2023-01-26T11:45:27;96877.06;;;3.59;53.31
50977;BME280;36992;48.200;12.418;2023-01-26T11:48:10;96868.00;;;3.60;53.76
50977;BME280;36992;48.200;12.418;2023-01-26T11:50:44;96874.16;;;3.61;53.50
50977;BME280;36992;48.200;12.418;2023-01-26T11:53:26;96869.63;;;3.61;53.32
50977;BME280;36992;48.200;12.418;2023-01-26T11:56:12;96865.91;;;3.62;53.27
50977;BME280;36992;48.200;12.418;2023-01-26T11:58:45;96867.22;;;3.60;53.67
50977;BME280;36992;48.200;12.418;2023-01-26T12:01:17;96863.19;;;3.57;54.02
50977;BME280;36992;48.200;12.418;2023-01-26T12:03:49;96852.53;;;3.57;53.71
50977;BME280;36992;48.200;12.418;2023-01-26T12:06:18;96851.94;;;3.55;53.73
50977;BME280;36992;48.200;12.418;2023-01-26T12:08:49;96854.13;;;3.58;53.89
50977;BME280;36992;48.200;12.418;2023-01-26T12:11:21;96859.47;;;3.58;53.54
50977;BME280;36992;48.200;12.418;2023-01-26T12:14:06;96850.19;;;3.61;53.75
50977;BME280;36992;48.200;12.418;2023-01-26T12:16:43;96851.22;;;3.60;53.76
50977;BME280;36992;48.200;12.418;2023-01-26T12:19:24;96838.94;;;3.59;53.83
50977;BME280;36992;48.200;12.418;2023-01-26T12:21:56;96845.91;;;3.60;53.78
50977;BME280;36992;48.200;12.418;2023-01-26T12:24:34;96843.47;;;3.58;53.38
50977;BME280;36992;48.200;12.418;2023-01-26T12:27:07;96845.25;;;3.53;53.39
50977;BME280;36992;48.200;12.418;2023-01-26T12:29:45;96839.13;;;3.52;53.74
50977;BME280;36992;48.200;12.418;2023-01-26T12:32:14;96844.38;;;3.47;54.07
50977;BME280;36992;48.200;12.418;2023-01-26T12:34:42;96837.97;;;3.48;54.35
50977;BME280;36992;48.200;12.418;2023-01-26T12:37:24;96850.25;;;3.49;53.94
50977;BME280;36992;48.200;12.418;2023-01-26T12:39:56;96845.75;;;3.49;53.68
50977;BME280;36992;48.200;12.418;2023-01-26T12:42:33;96843.88;;;3.50;53.95
50977;BME280;36992;48.200;12.418;2023-01-26T12:45:06;96844.69;;;3.50;53.96
50977;BME280;36992;48.200;12.418;2023-01-26T12:47:37;96844.69;;;3.50;53.83
50977;BME280;36992;48.200;12.418;2023-01-26T12:50:11;96847.34;;;3.50;54.17
50977;BME280;36992;48.200;12.418;2023-01-26T12:52:43;96848.16;;;3.51;53.76
50977;BME280;36992;48.200;12.418;2023-01-26T12:55:15;96839.59;;;3.49;53.74
50977;BME280;36992;48.200;12.418;2023-01-26T12:57:48;96835.88;;;3.50;53.70
50977;BME280;36992;48.200;12.418;2023-01-26T13:00:18;96835.88;;;3.50;54.16
50977;BME280;36992;48.200;12.418;2023-01-26T13:02:48;96835.88;;;3.50;54.08
50977;BME280;36992;48.200;12.418;2023-01-26T13:05:26;96842.84;;;3.51;54.16
50977;BME280;36992;48.200;12.418;2023-01-26T13:07:53;96827.31;;;3.48;53.81
50977;BME280;36992;48.200;12.418;2023-01-26T13:10:26;96836.13;;;3.48;53.92
50977;BME280;36992;48.200;12.418;2023-01-26T13:12:55;96830.22;;;3.46;54.04
50977;BME280;36992;48.200;12.418;2023-01-26T13:15:24;96828.63;;;3.45;54.07